Time;durP1;ratioP1;P1;durP2;ratioP2;P2;SDS_P1;SDS_P2;PMS_P1;PMS_P2;Temp;Humidity;BMP_temperature;BMP_pressure;BME280_temperature;BME280_humidity;BME280_pressure;Samples;Min_cycle;Max_cycle;Signal;HPM_P1;HPM_P2
2023/05/30 00:01:57;;;;;;;12.15;4.50;;;11.50;99.90;;;;;;5054906;28;20252;-74
2023/05/30 00:04:27;;;;;;;17.25;4.90;;;11.50;99.90;;;;;;5053639;28;20295;-75
2023/05/30 00:06:54;;;;;;;17.80;5.55;;;11.50;99.90;;;;;;5059168;28;20285;-77
2023/05/30 00:09:22;;;;;;;10.70;4.15;;;11.50;99.90;;;;;;5063151;28;20316;-74
2023/05/30 00:11:49;;;;;;;10.77;5.47;;;11.50;99.90;;;;;;5042545;28;20241;-75
2023/05/30 00:14:20;;;;;;;12.25;4.68;;;11.50;99.90;;;;;;5049848;28;20256;-76
2023/05/30 00:16:47;;;;;;;14.25;4.90;;;11.50;99.90;;;;;;5043075;28;20610;-75
2023/05/30 00:19:14;;;;;;;15.48;5.03;;;11.50;99.90;;;;;;5056265;28;20204;-75
2023/05/30 00:21:42;;;;;;;21.30;5.18;;;11.50;99.90;;;;;;5057047;28;20221;-77
2023/05/30 00:24:11;;;;;;;15.93;5.05;;;11.50;99.90;;;;;;5056480;28;20668;-75
2023/05/30 00:26:38;;;;;;;22.67;6.15;;;11.50;99.90;;;;;;5045081;28;20241;-75
2023/05/30 00:29:04;;;;;;;15.77;5.55;;;11.40;99.90;;;;;;5061350;28;20203;-77
2023/05/30 00:31:31;;;;;;;15.80;4.50;;;11.40;99.90;;;;;;5046152;28;20736;-74
2023/05/30 00:33:58;;;;;;;15.18;5.75;;;11.50;99.90;;;;;;5058570;28;20213;-76
2023/05/30 00:36:25;;;;;;;23.10;4.90;;;11.40;99.90;;;;;;5056572;28;20226;-76
2023/05/30 00:38:53;;;;;;;12.85;5.05;;;11.40;99.90;;;;;;5052876;28;20278;-76
2023/05/30 00:41:20;;;;;;;12.52;4.88;;;11.40;99.90;;;;;;5060006;28;20292;-75
2023/05/30 00:43:47;;;;;;;22.80;8.15;;;11.40;99.90;;;;;;5079537;28;20257;-73
2023/05/30 00:46:16;;;;;;;20.33;4.70;;;11.40;99.90;;;;;;5050718;28;20214;-75
2023/05/30 00:48:43;;;;;;;12.75;5.95;;;11.40;99.90;;;;;;5067122;28;20634;-74
2023/05/30 00:51:11;;;;;;;9.48;4.15;;;11.40;99.90;;;;;;5045561;28;20214;-75
2023/05/30 00:53:41;;;;;;;14.35;5.18;;;11.30;99.90;;;;;;5054784;28;20617;-75
2023/05/30 00:56:10;;;;;;;16.33;4.00;;;11.30;99.90;;;;;;5052964;28;20636;-77
2023/05/30 00:58:39;;;;;;;19.98;5.40;;;11.40;99.90;;;;;;5057552;28;20261;-76
2023/05/30 01:01:06;;;;;;;8.68;4.53;;;11.30;99.90;;;;;;5066213;28;20199;-76
2023/05/30 01:03:33;;;;;;;20.80;5.85;;;11.30;99.90;;;;;;5068310;28;20225;-75
2023/05/30 01:06:01;;;;;;;15.60;6.15;;;11.30;99.90;;;;;;5067116;28;20226;-74
2023/05/30 01:08:28;;;;;;;9.02;4.45;;;11.20;99.90;;;;;;5061556;28;20264;-76
2023/05/30 01:11:03;;;;;;;14.75;4.43;;;11.20;99.90;;;;;;5054681;28;20287;-75
2023/05/30 01:13:41;;;;;;;14.32;6.05;;;11.20;99.90;;;;;;5069054;28;20219;-79
2023/05/30 01:16:12;;;;;;;14.68;5.63;;;11.20;99.90;;;;;;5048194;28;20206;-75
2023/05/30 01:18:41;;;;;;;15.65;4.43;;;11.20;99.90;;;;;;5050412;28;20196;-76
2023/05/30 01:21:10;;;;;;;13.27;5.25;;;11.20;99.90;;;;;;5049325;28;20339;-76
2023/05/30 01:24:02;;;;;;;25.52;6.00;;;11.20;99.90;;;;;;5063155;28;20223;-76
2023/05/30 01:26:43;;;;;;;12.50;4.95;;;11.20;99.90;;;;;;5054523;28;20233;-76
2023/05/30 01:29:18;;;;;;;12.50;4.35;;;11.20;99.90;;;;;;5056805;28;20652;-76
2023/05/30 01:31:46;;;;;;;20.10;5.28;;;11.20;99.90;;;;;;5058276;28;20588;-76
2023/05/30 01:34:14;;;;;;;12.73;5.18;;;11.20;99.90;;;;;;5058790;28;20284;-76
2023/05/30 01:36:41;;;;;;;10.43;4.55;;;11.30;99.90;;;;;;5058293;28;20284;-77
2023/05/30 01:39:09;;;;;;;16.13;4.85;;;11.30;99.90;;;;;;5066315;28;20202;-75
2023/05/30 01:41:46;;;;;;;15.27;5.20;;;11.20;99.90;;;;;;5058020;28;20649;-76
2023/05/30 01:44:23;;;;;;;13.82;4.95;;;11.20;99.90;;;;;;5048497;28;20205;-76
2023/05/30 01:46:59;;;;;;;16.95;5.07;;;11.20;99.90;;;;;;5061851;28;20223;-76
2023/05/30 01:49:32;;;;;;;17.60;5.50;;;11.30;99.90;;;;;;5063006;28;20196;-78
2023/05/30 01:52:03;;;;;;;20.63;5.35;;;11.20;99.90;;;;;;5063874;28;20315;-76
2023/05/30 01:54:32;;;;;;;16.20;4.93;;;11.10;99.90;;;;;;5057387;28;20210;-75
2023/05/30 01:57:03;;;;;;;16.65;5.43;;;11.10;99.90;;;;;;5062628;28;20202;-74
2023/05/30 01:59:33;;;;;;;16.20;7.70;;;11.10;99.90;;;;;;5036108;28;20204;-73
2023/05/30 02:02:01;;;;;;;16.33;5.10;;;11.10;99.90;;;;;;5057316;28;20230;-76
2023/05/30 02:04:28;;;;;;;18.83;6.03;;;11.10;99.90;;;;;;5065809;28;20817;-78
2023/05/30 02:06:55;;;;;;;18.48;5.70;;;11.10;99.90;;;;;;5065385;28;20211;-77
2023/05/30 02:09:22;;;;;;;18.48;5.15;;;11.10;99.90;;;;;;5055011;28;20735;-75
2023/05/30 02:11:49;;;;;;;29.08;5.30;;;11.00;99.90;;;;;;5055711;28;20823;-76
2023/05/30 02:14:16;;;;;;;13.63;5.00;;;11.10;99.90;;;;;;5053260;28;20206;-77
2023/05/30 02:16:45;;;;;;;14.40;5.55;;;11.10;99.90;;;;;;5053717;28;20664;-76
2023/05/30 02:19:12;;;;;;;11.07;4.85;;;11.10;99.90;;;;;;5063922;28;20211;-76
2023/05/30 02:21:39;;;;;;;13.25;5.80;;;11.00;99.90;;;;;;5053871;28;20218;-76
2023/05/30 02:24:07;;;;;;;12.45;4.72;;;11.00;99.90;;;;;;5046567;28;20300;-75
2023/05/30 02:26:35;;;;;;;14.73;6.03;;;11.00;99.90;;;;;;5045981;28;20299;-77
2023/05/30 02:29:02;;;;;;;13.32;5.85;;;11.00;99.90;;;;;;5068702;28;20227;-75
2023/05/30 02:31:29;;;;;;;13.60;5.05;;;11.00;99.90;;;;;;5071273;28;20230;-76
2023/05/30 02:34:02;;;;;;;13.80;5.20;;;11.00;99.90;;;;;;5057792;28;20204;-76
2023/05/30 02:36:30;;;;;;;20.70;7.45;;;11.10;99.90;;;;;;5060447;28;20260;-76
2023/05/30 02:38:57;;;;;;;11.75;5.10;;;11.10;99.90;;;;;;5057374;28;20199;-76
2023/05/30 02:41:24;;;;;;;12.52;5.43;;;11.10;99.90;;;;;;5053662;28;20302;-78
2023/05/30 02:43:51;;;;;;;7.07;4.60;;;11.10;99.90;;;;;;5067329;28;20226;-76
2023/05/30 02:46:17;;;;;;;16.20;5.47;;;11.10;99.90;;;;;;5063292;28;20278;-75
2023/05/30 02:48:44;;;;;;;17.50;5.90;;;11.10;99.90;;;;;;5054892;28;20279;-76
2023/05/30 02:51:13;;;;;;;14.15;5.97;;;11.10;99.90;;;;;;5066050;28;20250;-75
2023/05/30 02:53:41;;;;;;;12.85;4.90;;;11.10;99.90;;;;;;5054211;28;20317;-74
2023/05/30 02:56:07;;;;;;;15.57;5.72;;;11.10;99.90;;;;;;5051001;28;20232;-76
2023/05/30 02:58:34;;;;;;;15.70;4.80;;;11.10;99.90;;;;;;5058597;28;20773;-76
2023/05/30 03:01:01;;;;;;;33.72;7.03;;;11.10;99.90;;;;;;5056573;28;20204;-75
2023/05/30 03:03:29;;;;;;;10.65;4.93;;;11.10;99.90;;;;;;5055248;28;20732;-77
2023/05/30 03:05:57;;;;;;;18.92;5.35;;;11.10;99.90;;;;;;5059950;28;20215;-76
2023/05/30 03:08:25;;;;;;;19.52;5.40;;;11.10;99.90;;;;;;5058097;28;20208;-76
2023/05/30 03:10:52;;;;;;;13.35;6.75;;;11.10;99.90;;;;;;5044834;28;20298;-75
2023/05/30 03:13:19;;;;;;;20.00;6.25;;;11.10;99.90;;;;;;5058240;28;20313;-75
2023/05/30 03:15:47;;;;;;;24.60;6.35;;;11.10;99.90;;;;;;5052703;28;20221;-76
2023/05/30 03:18:14;;;;;;;17.33;6.97;;;11.10;99.90;;;;;;5052779;28;20283;-76
2023/05/30 03:20:42;;;;;;;21.67;6.63;;;11.20;99.90;;;;;;5059553;28;20293;-74
2023/05/30 03:23:09;;;;;;;15.15;7.25;;;11.20;99.90;;;;;;5050036;28;20222;-74
2023/05/30 03:25:37;;;;;;;15.38;5.90;;;11.30;99.90;;;;;;5055944;28;20716;-75
2023/05/30 03:28:06;;;;;;;12.75;5.07;;;11.40;99.90;;;;;;5054996;28;20289;-74
2023/05/30 03:30:34;;;;;;;14.60;5.38;;;11.40;99.90;;;;;;5064144;28;20281;-77
2023/05/30 03:33:01;;;;;;;12.38;5.22;;;11.50;99.90;;;;;;5056769;28;20237;-78
2023/05/30 03:35:28;;;;;;;25.83;6.22;;;11.60;99.90;;;;;;5064945;28;20288;-76
2023/05/30 03:37:55;;;;;;;12.93;5.93;;;11.60;99.90;;;;;;5058815;28;20287;-76
2023/05/30 03:40:23;;;;;;;19.02;7.15;;;11.70;99.90;;;;;;5058979;28;20265;-76
2023/05/30 03:42:51;;;;;;;19.63;6.85;;;11.80;99.90;;;;;;5056893;28;20314;-76
2023/05/30 03:45:18;;;;;;;17.02;6.07;;;11.90;99.90;;;;;;5043888;28;20214;-75
2023/05/30 03:47:45;;;;;;;20.52;7.88;;;12.00;99.90;;;;;;5050546;28;20218;-76
2023/05/30 03:50:12;;;;;;;14.82;5.68;;;12.00;99.90;;;;;;5064935;28;20306;-75
2023/05/30 03:52:39;;;;;;;25.83;6.68;;;12.10;99.90;;;;;;5052866;28;20695;-76
2023/05/30 03:55:06;;;;;;;20.05;8.48;;;12.20;99.90;;;;;;5048533;28;20199;-77
2023/05/30 03:57:33;;;;;;;17.98;6.45;;;12.20;99.90;;;;;;5047288;28;20570;-76
2023/05/30 04:00:01;;;;;;;16.45;4.90;;;12.30;99.90;;;;;;5051959;28;20309;-77
2023/05/30 04:02:28;;;;;;;13.40;5.63;;;12.40;99.90;;;;;;5046756;28;20219;-75
2023/05/30 04:04:55;;;;;;;14.43;6.15;;;12.40;99.90;;;;;;5055382;28;20200;-75
2023/05/30 04:07:24;;;;;;;18.00;5.10;;;12.40;99.90;;;;;;5061514;28;20225;-76
2023/05/30 04:09:52;;;;;;;9.50;4.97;;;12.50;99.90;;;;;;5064342;28;20248;-75
2023/05/30 04:12:18;;;;;;;16.80;5.43;;;12.50;99.90;;;;;;5057023;28;20306;-75
2023/05/30 04:14:45;;;;;;;9.10;4.90;;;12.50;99.90;;;;;;5073262;28;20244;-75
2023/05/30 04:17:20;;;;;;;13.18;6.00;;;12.50;99.90;;;;;;5074979;28;20194;-76
2023/05/30 04:19:47;;;;;;;20.38;6.70;;;12.60;99.90;;;;;;5057064;28;20316;-75
2023/05/30 04:22:15;;;;;;;12.73;5.10;;;12.70;99.90;;;;;;5059082;28;20231;-77
2023/05/30 04:24:42;;;;;;;13.85;5.25;;;12.70;99.90;;;;;;5060612;28;20206;-75
2023/05/30 04:27:11;;;;;;;15.73;5.70;;;12.80;99.90;;;;;;5067772;28;20651;-74
2023/05/30 04:29:40;;;;;;;17.67;5.38;;;12.90;99.90;;;;;;5063965;28;20199;-77
2023/05/30 04:32:08;;;;;;;12.68;5.40;;;12.90;99.90;;;;;;5045212;28;20589;-75
2023/05/30 04:34:38;;;;;;;18.98;6.25;;;12.90;99.90;;;;;;5063318;28;20286;-77
2023/05/30 04:37:06;;;;;;;15.63;5.85;;;13.00;99.90;;;;;;5045948;28;20273;-75
2023/05/30 04:39:33;;;;;;;18.42;5.95;;;13.10;99.90;;;;;;5057557;28;20235;-75
2023/05/30 04:42:04;;;;;;;15.35;6.28;;;13.10;99.90;;;;;;5065419;28;20597;-77
2023/05/30 04:44:37;;;;;;;23.42;6.00;;;13.00;99.90;;;;;;5055555;28;20287;-76
2023/05/30 04:47:07;;;;;;;16.50;5.10;;;13.10;99.90;;;;;;5058052;28;20226;-74
2023/05/30 04:49:41;;;;;;;18.10;6.13;;;13.10;99.90;;;;;;5055665;28;20226;-75
2023/05/30 04:52:08;;;;;;;11.02;5.20;;;13.20;99.90;;;;;;5048994;28;20696;-75
2023/05/30 04:54:35;;;;;;;19.98;6.88;;;13.30;99.90;;;;;;5056168;28;20218;-76
2023/05/30 04:57:03;;;;;;;19.40;7.00;;;13.30;99.90;;;;;;5042141;28;20260;-76
2023/05/30 04:59:30;;;;;;;18.92;6.55;;;13.40;99.90;;;;;;5062399;28;20666;-74
2023/05/30 05:01:57;;;;;;;19.02;7.95;;;13.50;99.90;;;;;;5067194;28;20305;-76
2023/05/30 05:04:24;;;;;;;17.38;7.10;;;13.50;99.90;;;;;;5044862;28;20203;-76
2023/05/30 05:06:53;;;;;;;14.88;5.15;;;13.50;99.90;;;;;;5054954;28;20222;-76
2023/05/30 05:09:20;;;;;;;17.77;7.28;;;13.50;99.90;;;;;;5055944;28;20557;-77
2023/05/30 05:11:47;;;;;;;14.48;5.00;;;13.60;99.90;;;;;;5057445;28;20255;-77
2023/05/30 05:14:14;;;;;;;24.48;6.43;;;13.60;99.90;;;;;;5048428;28;20286;-77
2023/05/30 05:16:41;;;;;;;18.00;6.55;;;13.60;99.90;;;;;;5040981;28;20287;-76
2023/05/30 05:19:08;;;;;;;19.50;5.80;;;13.60;99.90;;;;;;5059530;28;20297;-75
2023/05/30 05:21:35;;;;;;;16.67;5.80;;;13.60;99.90;;;;;;5041851;28;20283;-76
2023/05/30 05:24:03;;;;;;;22.52;5.45;;;13.70;99.90;;;;;;5064208;28;20290;-76
2023/05/30 05:26:30;;;;;;;21.45;6.38;;;13.70;99.90;;;;;;5048592;28;20242;-77
2023/05/30 05:28:58;;;;;;;20.52;5.93;;;13.70;99.90;;;;;;5062411;28;20276;-74
2023/05/30 05:31:25;;;;;;;14.15;5.43;;;13.70;99.90;;;;;;5063732;28;20209;-75
2023/05/30 05:33:52;;;;;;;18.30;6.18;;;13.80;99.90;;;;;;5060966;28;20259;-76
2023/05/30 05:36:20;;;;;;;12.43;5.00;;;13.80;99.90;;;;;;5060991;28;20279;-77
2023/05/30 05:38:48;;;;;;;16.27;5.43;;;13.80;99.90;;;;;;5048016;28;20207;-77
2023/05/30 05:41:16;;;;;;;14.35;6.25;;;13.80;99.90;;;;;;5046894;28;20209;-75
2023/05/30 05:43:43;;;;;;;21.23;6.50;;;13.80;99.90;;;;;;5050721;28;20239;-75
2023/05/30 05:46:12;;;;;;;14.93;5.13;;;13.80;99.90;;;;;;5062459;28;20227;-77
2023/05/30 05:48:38;;;;;;;11.38;5.00;;;13.90;99.90;;;;;;5051672;28;20601;-78
2023/05/30 05:51:05;;;;;;;13.05;5.00;;;13.90;99.90;;;;;;5039012;28;20738;-77
2023/05/30 05:53:32;;;;;;;15.85;5.90;;;13.90;99.90;;;;;;5046067;28;20307;-76
2023/05/30 05:56:00;;;;;;;11.60;5.25;;;14.00;99.90;;;;;;5049122;28;20291;-78
2023/05/30 05:58:30;;;;;;;16.38;5.88;;;14.00;99.90;;;;;;5062804;28;20204;-78
2023/05/30 06:00:56;;;;;;;17.10;6.20;;;14.00;99.90;;;;;;5049478;28;20204;-75
2023/05/30 06:03:30;;;;;;;12.55;4.75;;;14.10;99.90;;;;;;5076556;28;20246;-76
2023/05/30 06:05:57;;;;;;;14.48;5.15;;;14.10;99.90;;;;;;5045972;28;20290;-78
2023/05/30 06:08:24;;;;;;;11.57;5.40;;;14.10;99.90;;;;;;5054729;28;20317;-76
2023/05/30 06:10:51;;;;;;;13.10;4.43;;;14.10;99.90;;;;;;5048861;28;20219;-77
2023/05/30 06:13:18;;;;;;;17.13;5.00;;;14.00;99.90;;;;;;5060757;28;20907;-75
2023/05/30 06:15:46;;;;;;;24.85;5.80;;;14.00;99.90;;;;;;5061735;28;20200;-74
2023/05/30 06:18:13;;;;;;;17.90;5.20;;;14.00;99.90;;;;;;5054765;28;20202;-76
2023/05/30 06:20:40;;;;;;;17.33;5.43;;;14.00;99.90;;;;;;5039390;28;20557;-76
2023/05/30 06:23:09;;;;;;;10.85;4.55;;;14.00;99.90;;;;;;5055804;28;20311;-74
2023/05/30 06:25:36;;;;;;;11.15;4.35;;;14.00;99.90;;;;;;5049920;28;20208;-75
2023/05/30 06:28:03;;;;;;;16.25;4.00;;;14.00;99.90;;;;;;5053296;28;20208;-74
2023/05/30 06:30:30;;;;;;;10.32;3.90;;;14.10;99.90;;;;;;5049512;28;20684;-76
2023/05/30 06:32:58;;;;;;;11.38;4.93;;;14.10;99.90;;;;;;5061281;28;20353;-71
2023/05/30 06:35:28;;;;;;;10.55;4.40;;;14.10;99.90;;;;;;5068171;28;20258;-75
2023/05/30 06:37:54;;;;;;;10.95;4.57;;;14.10;99.90;;;;;;5049667;28;20238;-73
2023/05/30 06:40:22;;;;;;;13.25;4.20;;;14.10;99.90;;;;;;5062107;28;20246;-74
2023/05/30 06:42:49;;;;;;;7.22;3.50;;;14.20;99.90;;;;;;5041493;28;20228;-73
2023/05/30 06:45:16;;;;;;;13.27;4.70;;;14.10;99.90;;;;;;5049197;28;20269;-71
2023/05/30 06:47:43;;;;;;;8.50;3.78;;;14.20;99.90;;;;;;5056553;28;20218;-71
2023/05/30 06:50:12;;;;;;;10.57;4.28;;;14.20;99.90;;;;;;5042293;28;20218;-74
2023/05/30 06:52:39;;;;;;;12.55;4.20;;;14.30;99.90;;;;;;5050242;28;20263;-70
2023/05/30 06:55:07;;;;;;;16.02;4.85;;;14.30;99.90;;;;;;5055187;28;20298;-71
2023/05/30 06:57:36;;;;;;;8.43;4.55;;;14.40;99.90;;;;;;5052070;28;20200;-71
2023/05/30 07:00:05;;;;;;;10.18;3.83;;;14.40;99.90;;;;;;5054632;28;20204;-73
2023/05/30 07:02:34;;;;;;;5.88;3.80;;;14.40;99.90;;;;;;5034345;28;20224;-71
2023/05/30 07:05:00;;;;;;;10.27;3.65;;;14.50;99.90;;;;;;5051616;28;20661;-70
2023/05/30 07:07:32;;;;;;;7.65;3.88;;;14.50;99.90;;;;;;5049932;28;20216;-71
2023/05/30 07:09:59;;;;;;;17.17;4.63;;;14.40;99.90;;;;;;5053855;28;20247;-73
2023/05/30 07:12:26;;;;;;;11.70;4.10;;;14.50;99.90;;;;;;5048399;28;20218;-71
2023/05/30 07:14:53;;;;;;;10.65;4.30;;;14.50;99.90;;;;;;5051975;28;20253;-73
2023/05/30 07:17:21;;;;;;;9.77;3.92;;;14.60;99.90;;;;;;5044463;28;20200;-74
2023/05/30 07:19:49;;;;;;;9.73;4.75;;;14.60;99.90;;;;;;5041549;28;20227;-73
2023/05/30 07:22:25;;;;;;;8.80;5.18;;;14.70;99.90;;;;;;5062146;28;20286;-76
2023/05/30 07:24:53;;;;;;;7.82;4.00;;;14.80;99.90;;;;;;5038995;28;20203;-74
2023/05/30 07:27:20;;;;;;;8.68;4.57;;;14.90;99.90;;;;;;5044982;28;20219;-74
2023/05/30 07:29:47;;;;;;;13.48;5.22;;;15.00;99.90;;;;;;5045110;28;20302;-73
2023/05/30 07:32:14;;;;;;;12.93;4.20;;;15.10;99.90;;;;;;5051867;28;20745;-74
2023/05/30 07:34:41;;;;;;;9.95;4.25;;;15.20;99.90;;;;;;5040938;28;20276;-73
2023/05/30 07:37:08;;;;;;;10.93;4.80;;;15.20;99.90;;;;;;5061889;28;20191;-72
2023/05/30 07:39:36;;;;;;;9.63;4.47;;;15.30;99.90;;;;;;5044552;28;20607;-74
2023/05/30 07:42:06;;;;;;;11.43;4.22;;;15.30;99.90;;;;;;5068564;28;20270;-77
2023/05/30 07:44:33;;;;;;;11.07;4.15;;;15.30;99.90;;;;;;5059111;28;20364;-76
2023/05/30 07:47:00;;;;;;;10.70;4.20;;;15.30;99.90;;;;;;5054916;28;20201;-76
2023/05/30 07:49:27;;;;;;;5.32;3.90;;;15.30;99.90;;;;;;5062551;28;20193;-72
2023/05/30 07:51:55;;;;;;;9.88;4.15;;;15.20;99.90;;;;;;5069779;28;20274;-75
2023/05/30 07:54:28;;;;;;;10.82;3.22;;;15.30;99.90;;;;;;5052993;28;20278;-71
2023/05/30 07:56:55;;;;;;;6.50;3.78;;;15.30;99.90;;;;;;5042061;28;20269;-75
2023/05/30 07:59:24;;;;;;;10.13;4.38;;;15.30;99.90;;;;;;5047206;28;20594;-71
2023/05/30 08:01:50;;;;;;;8.40;4.35;;;15.30;99.90;;;;;;5057474;28;20232;-74
2023/05/30 08:04:17;;;;;;;11.02;4.63;;;15.20;99.90;;;;;;5046111;28;20299;-75
2023/05/30 08:06:44;;;;;;;9.70;4.28;;;15.20;99.90;;;;;;5048911;28;20200;-74
2023/05/30 08:09:11;;;;;;;8.02;4.93;;;15.30;99.90;;;;;;5051825;28;20245;-71
2023/05/30 08:11:38;;;;;;;9.13;4.13;;;15.40;99.90;;;;;;5052137;28;20215;-72
2023/05/30 08:14:05;;;;;;;5.20;3.78;;;15.30;99.90;;;;;;5048622;28;20223;-73
2023/05/30 08:16:34;;;;;;;16.40;4.75;;;15.30;99.90;;;;;;5043828;28;20699;-72
2023/05/30 08:19:01;;;;;;;6.20;2.92;;;15.40;99.90;;;;;;5052818;28;20263;-73
2023/05/30 08:21:28;;;;;;;6.50;3.63;;;15.40;99.90;;;;;;5052522;28;20219;-74
2023/05/30 08:23:55;;;;;;;11.82;4.70;;;15.60;99.90;;;;;;5050207;28;20633;-73
2023/05/30 08:26:24;;;;;;;10.90;3.92;;;15.70;99.90;;;;;;5059710;28;20240;-72
2023/05/30 08:28:51;;;;;;;7.53;4.47;;;15.90;99.90;;;;;;5060253;28;20251;-74
2023/05/30 08:31:19;;;;;;;8.43;4.40;;;15.90;99.90;;;;;;5045649;28;20807;-72
2023/05/30 08:33:48;;;;;;;8.93;4.10;;;16.00;99.90;;;;;;5055078;28;21002;-73
2023/05/30 08:36:16;;;;;;;9.77;4.30;;;16.00;99.90;;;;;;5065254;28;20440;-74
2023/05/30 08:38:43;;;;;;;7.60;3.58;;;16.00;99.90;;;;;;5057629;28;20578;-73
2023/05/30 08:41:10;;;;;;;6.33;3.20;;;16.10;99.90;;;;;;5045627;28;20289;-72
2023/05/30 08:43:37;;;;;;;10.50;4.25;;;16.20;99.90;;;;;;5068921;28;20494;-75
2023/05/30 08:46:05;;;;;;;10.07;4.55;;;16.10;99.90;;;;;;5056449;28;20288;-74
2023/05/30 08:48:34;;;;;;;6.32;4.15;;;16.00;99.90;;;;;;5045333;28;20218;-73
2023/05/30 08:51:03;;;;;;;7.13;4.90;;;15.90;99.90;;;;;;5051442;28;20300;-73
2023/05/30 08:53:33;;;;;;;8.60;3.60;;;15.80;99.90;;;;;;5046296;28;20716;-73
2023/05/30 08:56:05;;;;;;;9.13;3.35;;;15.80;99.90;;;;;;5051215;28;20216;-72
2023/05/30 08:58:37;;;;;;;6.20;3.33;;;15.90;99.90;;;;;;5059281;28;20221;-71
2023/05/30 09:01:04;;;;;;;5.78;3.72;;;16.00;99.90;;;;;;5046308;28;20205;-75
2023/05/30 09:03:32;;;;;;;5.80;3.13;;;16.10;99.90;;;;;;5053245;28;20240;-71
2023/05/30 09:06:01;;;;;;;7.13;3.20;;;16.10;99.90;;;;;;5051932;28;20223;-73
2023/05/30 09:08:30;;;;;;;4.45;3.00;;;16.00;99.90;;;;;;5057654;28;20633;-73
2023/05/30 09:10:59;;;;;;;8.02;4.50;;;15.90;99.90;;;;;;5055274;28;20205;-71
2023/05/30 09:13:25;;;;;;;8.53;3.30;;;16.00;99.90;;;;;;5060300;28;20307;-70
2023/05/30 09:15:53;;;;;;;6.38;3.60;;;16.00;99.90;;;;;;5051326;28;20452;-73
2023/05/30 09:18:20;;;;;;;4.97;3.00;;;16.00;99.90;;;;;;5049419;28;20197;-71
2023/05/30 09:20:47;;;;;;;11.47;3.57;;;16.10;99.90;;;;;;5053585;28;20466;-72
2023/05/30 09:23:14;;;;;;;5.25;3.10;;;16.20;99.90;;;;;;5056428;28;20560;-71
2023/05/30 09:25:43;;;;;;;7.70;3.53;;;16.20;99.90;;;;;;5047532;28;20599;-73
2023/05/30 09:28:10;;;;;;;3.40;3.05;;;16.30;99.90;;;;;;5039317;28;20227;-72
2023/05/30 09:30:54;;;;;;;4.33;2.60;;;16.50;99.90;;;;;;5054418;28;20230;-72
2023/05/30 09:33:21;;;;;;;3.80;3.20;;;16.40;99.90;;;;;;5048477;28;20466;-74
2023/05/30 09:35:51;;;;;;;20.17;4.13;;;16.50;99.90;;;;;;5068219;28;20441;-72
2023/05/30 09:38:21;;;;;;;7.37;4.50;;;16.60;99.90;;;;;;5069727;28;20525;-71
2023/05/30 09:40:56;;;;;;;4.50;3.20;;;16.60;99.90;;;;;;5057233;28;20442;-73
2023/05/30 09:43:34;;;;;;;5.23;3.30;;;16.70;99.90;;;;;;5059516;28;20896;-74
2023/05/30 09:46:03;;;;;;;5.80;3.90;;;16.60;99.90;;;;;;5046498;28;20452;-76
2023/05/30 09:48:33;;;;;;;8.03;2.90;;;16.80;99.90;;;;;;5047963;28;20227;-74
2023/05/30 09:51:01;;;;;;;8.95;2.88;;;16.90;99.90;;;;;;5043921;28;20900;-74
2023/05/30 09:53:30;;;;;;;5.53;2.93;;;17.10;99.90;;;;;;5052633;28;20219;-74
2023/05/30 09:55:58;;;;;;;5.70;2.87;;;17.00;99.90;;;;;;5051150;28;20438;-74
2023/05/30 09:58:26;;;;;;;9.10;3.90;;;17.00;99.90;;;;;;5055039;28;20434;-76
2023/05/30 10:00:54;;;;;;;5.23;2.70;;;17.10;99.90;;;;;;5067429;28;20448;-75
2023/05/30 10:03:22;;;;;;;5.43;2.50;;;17.10;99.90;;;;;;5054179;28;20464;-74
2023/05/30 10:05:49;;;;;;;2.93;2.30;;;17.10;99.90;;;;;;5042107;28;20526;-72
2023/05/30 10:08:17;;;;;;;3.50;3.07;;;17.00;99.90;;;;;;5047283;28;21019;-75
2023/05/30 10:10:44;;;;;;;7.83;2.77;;;17.20;99.90;;;;;;5055248;28;20448;-74
2023/05/30 10:13:12;;;;;;;6.27;3.37;;;17.20;99.90;;;;;;5063785;28;20467;-74
2023/05/30 10:15:39;;;;;;;3.87;2.83;;;17.30;99.90;;;;;;5053481;28;20986;-73
2023/05/30 10:18:08;;;;;;;3.40;2.40;;;17.30;99.90;;;;;;5050135;28;20520;-75
2023/05/30 10:20:38;;;;;;;3.60;2.50;;;17.40;99.90;;;;;;5051116;28;20485;-73
2023/05/30 10:23:07;;;;;;;9.33;2.50;;;17.50;99.90;;;;;;5046929;28;20468;-75
2023/05/30 10:25:36;;;;;;;2.50;1.70;;;17.50;99.90;;;;;;5042792;28;20500;-75
2023/05/30 10:28:06;;;;;;;4.20;2.70;;;17.30;99.90;;;;;;5058290;28;20484;-75
2023/05/30 10:30:34;;;;;;;9.90;3.00;;;17.40;99.90;;;;;;5041020;28;20461;-76
2023/05/30 10:33:06;;;;;;;10.20;3.30;;;17.50;99.90;;;;;;5061905;28;21148;-74
2023/05/30 10:35:35;;;;;;;6.53;3.53;;;17.60;99.90;;;;;;5055684;28;20445;-75
2023/05/30 10:38:06;;;;;;;6.43;2.63;;;17.80;99.90;;;;;;5056440;28;20602;-75
2023/05/30 10:40:42;;;;;;;18.07;2.67;;;18.00;99.90;;;;;;5058724;28;20445;-73
2023/05/30 10:43:23;;;;;;;4.37;2.17;;;18.30;99.90;;;;;;5045137;28;20493;-74
2023/05/30 10:46:08;;;;;;;5.33;2.40;;;18.60;99.90;;;;;;5061636;28;20445;-74
2023/05/30 10:48:46;;;;;;;4.87;2.03;;;19.00;99.90;;;;;;5052923;28;20810;-74
2023/05/30 10:51:14;;;;;;;7.43;3.07;;;19.10;99.90;;;;;;5038020;28;20896;-76
2023/05/30 10:53:43;;;;;;;3.53;1.60;;;19.10;99.90;;;;;;5042891;28;20467;-75
2023/05/30 10:56:32;;;;;;;6.73;2.63;;;19.10;99.90;;;;;;5058256;28;20446;-75
2023/05/30 10:59:00;;;;;;;11.97;3.30;;;19.00;99.90;;;;;;5041072;28;20445;-75
2023/05/30 11:01:30;;;;;;;3.37;2.40;;;18.80;99.90;;;;;;5057128;28;20449;-73
2023/05/30 11:03:58;;;;;;;3.43;2.57;;;18.70;99.90;;;;;;5049533;28;20530;-75
2023/05/30 11:06:27;;;;;;;1.67;1.50;;;18.80;99.90;;;;;;5037179;28;20483;-76
2023/05/30 11:08:55;;;;;;;3.80;2.00;;;18.70;99.90;;;;;;5054296;28;20494;-75
2023/05/30 11:11:23;;;;;;;5.20;1.90;;;18.70;99.90;;;;;;5055720;28;20750;-73
2023/05/30 11:13:54;;;;;;;3.07;1.80;;;18.90;99.90;;;;;;5046153;28;20537;-73
2023/05/30 11:16:22;;;;;;;2.60;1.80;;;18.90;99.90;;;;;;5056111;28;20445;-76
2023/05/30 11:18:53;;;;;;;3.17;1.80;;;18.90;99.90;;;;;;5056754;28;20934;-74
2023/05/30 11:21:58;;;;;;;4.27;1.90;;;19.00;99.90;;;;;;5047522;28;20451;-75
2023/05/30 11:24:25;;;;;;;2.37;2.17;;;19.10;99.90;;;;;;5051696;28;20512;-75
2023/05/30 11:27:01;;;;;;;3.23;1.73;;;19.10;99.90;;;;;;5061594;28;20480;-74
2023/05/30 11:29:33;;;;;;;3.53;1.80;;;19.00;99.90;;;;;;5060718;28;20471;-75
2023/05/30 11:32:01;;;;;;;7.53;3.03;;;19.10;99.90;;;;;;5058460;28;20519;-75
2023/05/30 11:34:30;;;;;;;2.80;2.20;;;19.20;99.60;;;;;;5059481;28;20480;-76
2023/05/30 11:36:57;;;;;;;10.30;4.97;;;19.20;99.20;;;;;;5057655;28;21019;-75
2023/05/30 11:39:25;;;;;;;10.17;3.50;;;19.20;99.90;;;;;;5049392;28;20536;-74
2023/05/30 11:41:52;;;;;;;5.90;2.30;;;19.10;99.90;;;;;;5054921;28;20549;-75
2023/05/30 11:44:19;;;;;;;3.50;2.73;;;18.80;99.90;;;;;;5051854;28;20435;-76
2023/05/30 11:46:57;;;;;;;2.50;1.90;;;18.60;99.90;;;;;;5052011;28;20442;-73
2023/05/30 11:49:24;;;;;;;2.97;2.67;;;18.50;99.90;;;;;;5046522;28;20486;-75
2023/05/30 11:51:53;;;;;;;2.97;2.10;;;18.40;99.90;;;;;;5059891;28;20917;-76
2023/05/30 11:54:20;;;;;;;3.13;2.10;;;18.40;99.90;;;;;;5066388;28;20448;-76
2023/05/30 11:56:50;;;;;;;3.70;2.37;;;18.50;99.90;;;;;;5059858;28;20485;-76
2023/05/30 11:59:19;;;;;;;5.67;2.00;;;18.70;99.90;;;;;;5062239;28;20449;-74
2023/05/30 12:01:51;;;;;;;3.07;2.73;;;18.70;99.90;;;;;;5051750;28;20455;-73
2023/05/30 12:04:22;;;;;;;2.90;2.63;;;18.70;99.90;;;;;;5065966;28;20535;-76
2023/05/30 12:06:49;;;;;;;2.37;1.97;;;18.70;99.90;;;;;;5060018;28;20451;-74
2023/05/30 12:09:18;;;;;;;3.50;2.37;;;18.90;99.90;;;;;;5055269;28;20647;-73
2023/05/30 12:11:59;;;;;;;4.00;2.03;;;19.00;99.90;;;;;;5058808;28;20449;-73
2023/05/30 12:14:30;;;;;;;2.97;2.40;;;19.00;99.90;;;;;;5049617;28;20443;-76
2023/05/30 12:16:58;;;;;;;2.90;2.00;;;19.20;99.80;;;;;;5053511;28;20448;-76
2023/05/30 12:19:31;;;;;;;4.60;2.27;;;19.20;98.90;;;;;;5059150;28;20521;-75
2023/05/30 12:21:58;;;;;;;1.87;1.63;;;19.40;98.80;;;;;;5058718;28;21015;-74
2023/05/30 12:24:27;;;;;;;1.97;1.77;;;19.50;97.90;;;;;;5054683;28;20447;-73
2023/05/30 12:26:57;;;;;;;8.43;2.73;;;19.60;97.60;;;;;;5060005;28;20479;-75
2023/05/30 12:29:25;;;;;;;6.90;2.10;;;19.50;97.40;;;;;;5051715;28;20481;-76
2023/05/30 12:31:53;;;;;;;2.17;1.70;;;19.50;97.60;;;;;;5067763;28;20825;-78
2023/05/30 12:34:20;;;;;;;4.93;2.63;;;19.50;97.30;;;;;;5071225;28;20986;-76
2023/05/30 12:36:48;;;;;;;3.67;2.70;;;19.50;97.00;;;;;;5060987;28;20503;-76
2023/05/30 12:39:15;;;;;;;4.40;2.47;;;19.60;97.40;;;;;;5054049;28;20521;-75
2023/05/30 12:41:44;;;;;;;4.57;2.40;;;19.50;96.80;;;;;;5049251;28;20867;-75
2023/05/30 12:44:18;;;;;;;4.03;2.47;;;19.70;96.80;;;;;;5061191;28;20471;-73
2023/05/30 12:46:45;;;;;;;3.73;1.93;;;19.90;96.40;;;;;;5068049;28;20442;-75
2023/05/30 12:49:12;;;;;;;2.33;2.00;;;20.20;95.80;;;;;;5069442;28;20526;-74